Time;durP1;ratioP1;P1;durP2;ratioP2;P2;SDS_P1;SDS_P2;PMS_P1;PMS_P2;Temp;Humidity;BMP_temperature;BMP_pressure;BME280_temperature;BME280_humidity;BME280_pressure;Samples;Min_cycle;Max_cycle;Signal;HPM_P1;HPM_P2
2021/10/09 00:02:24;;;;;;;27.83;10.90;;;11.20;99.90;;;;;;5086402;28;20050;-72
2021/10/09 00:04:49;;;;;;;22.20;9.57;;;11.20;99.90;;;;;;5086395;28;20036;-73
2021/10/09 00:07:15;;;;;;;24.95;10.48;;;11.10;99.90;;;;;;5086031;28;20028;-72
2021/10/09 00:09:41;;;;;;;20.80;9.93;;;11.20;99.90;;;;;;5085029;28;20028;-73
2021/10/09 00:12:07;;;;;;;26.23;10.88;;;11.10;99.90;;;;;;5086599;28;20040;-72
2021/10/09 00:14:32;;;;;;;20.58;10.63;;;11.10;99.90;;;;;;5085994;28;20571;-72
2021/10/09 00:16:58;;;;;;;33.40;10.05;;;11.10;99.90;;;;;;5086634;28;20029;-73
2021/10/09 00:19:24;;;;;;;27.65;10.27;;;11.10;99.90;;;;;;5086521;28;20028;-72
2021/10/09 00:21:49;;;;;;;21.40;9.63;;;11.10;99.90;;;;;;5085053;28;20199;-72
2021/10/09 00:24:17;;;;;;;35.42;11.10;;;11.10;99.90;;;;;;5083864;28;20028;-73
2021/10/09 00:26:43;;;;;;;24.63;9.63;;;11.10;99.90;;;;;;5084761;28;20035;-72
2021/10/09 00:29:10;;;;;;;26.60;10.73;;;11.10;99.90;;;;;;5085433;28;20079;-72
2021/10/09 00:31:35;;;;;;;37.22;12.45;;;11.10;99.90;;;;;;5085951;28;20032;-71
2021/10/09 00:34:02;;;;;;;32.78;11.23;;;11.10;99.90;;;;;;5083946;28;20048;-73
2021/10/09 00:36:28;;;;;;;23.27;11.40;;;11.10;99.90;;;;;;5085789;28;20044;-74
2021/10/09 00:38:54;;;;;;;26.58;11.73;;;11.10;99.90;;;;;;5086330;28;20054;-72
2021/10/09 00:41:20;;;;;;;23.88;12.35;;;11.10;99.90;;;;;;5085190;28;20039;-72
2021/10/09 00:43:45;;;;;;;25.70;10.90;;;11.10;99.90;;;;;;5085046;28;20393;-73
2021/10/09 00:46:11;;;;;;;22.98;10.32;;;11.10;99.90;;;;;;5085391;28;20029;-73
2021/10/09 00:48:37;;;;;;;35.10;11.05;;;11.10;99.90;;;;;;5085082;28;20051;-73
2021/10/09 00:51:04;;;;;;;26.77;11.60;;;11.10;99.90;;;;;;5085210;28;20043;-74
2021/10/09 00:53:32;;;;;;;26.92;10.90;;;11.10;99.90;;;;;;5085759;28;20035;-74
2021/10/09 00:56:01;;;;;;;29.70;11.38;;;11.10;99.90;;;;;;5085937;28;20075;-74
2021/10/09 00:58:28;;;;;;;25.63;10.95;;;11.10;99.90;;;;;;5099918;28;20032;-72
2021/10/09 01:00:55;;;;;;;21.95;10.57;;;11.00;99.90;;;;;;5084367;28;20035;-73
2021/10/09 01:03:21;;;;;;;34.72;11.02;;;11.00;99.90;;;;;;5083807;28;20131;-73
2021/10/09 01:05:47;;;;;;;23.42;9.90;;;11.00;99.90;;;;;;5084929;28;20054;-73
2021/10/09 01:08:14;;;;;;;30.80;11.68;;;11.00;99.90;;;;;;5085260;28;20029;-73
2021/10/09 01:10:39;;;;;;;30.88;11.73;;;10.90;99.90;;;;;;5084024;28;20029;-73
2021/10/09 07:04:03;;;;;;;15.52;7.40;;;8.60;99.90;;;;;;5066595;28;20135;-74
2021/10/09 07:06:28;;;;;;;23.55;7.35;;;8.60;99.90;;;;;;5081923;28;20033;-73
2021/10/09 07:08:54;;;;;;;20.20;8.15;;;8.70;99.90;;;;;;5078436;28;20059;-76
2021/10/09 07:11:20;;;;;;;18.98;7.47;;;8.70;99.90;;;;;;5080915;28;20033;-73
2021/10/09 07:13:45;;;;;;;19.35;8.18;;;8.70;99.90;;;;;;5080824;28;20035;-73
2021/10/09 07:16:11;;;;;;;18.23;8.45;;;8.80;99.90;;;;;;5081657;28;20834;-73
2021/10/09 07:18:37;;;;;;;21.77;8.52;;;8.80;99.90;;;;;;5082156;28;20084;-73
2021/10/09 07:21:03;;;;;;;19.73;7.90;;;8.90;99.90;;;;;;5080464;28;20035;-74
2021/10/09 07:23:29;;;;;;;19.60;7.88;;;9.00;99.90;;;;;;5081580;28;20032;-75
2021/10/09 07:25:55;;;;;;;18.48;8.68;;;9.10;99.90;;;;;;5082525;28;20048;-73
2021/10/09 07:28:20;;;;;;;13.75;7.45;;;9.20;99.90;;;;;;5081701;28;20032;-74
2021/10/09 07:30:47;;;;;;;21.50;9.23;;;9.30;99.90;;;;;;5082640;28;20032;-74
2021/10/09 07:33:13;;;;;;;14.45;7.07;;;9.40;99.90;;;;;;5081501;28;20485;-74
2021/10/09 07:35:39;;;;;;;16.02;7.97;;;9.60;99.90;;;;;;5084663;28;20036;-73
2021/10/09 07:38:04;;;;;;;30.23;7.95;;;9.90;99.90;;;;;;5085801;28;20025;-74
2021/10/09 07:40:31;;;;;;;15.98;6.80;;;10.10;99.90;;;;;;5084303;28;20029;-73
2021/10/09 07:42:57;;;;;;;13.10;6.90;;;10.30;99.90;;;;;;5083168;28;20103;-73
2021/10/09 07:45:24;;;;;;;17.50;7.07;;;10.50;99.90;;;;;;5085087;28;20040;-75
2021/10/09 07:47:49;;;;;;;14.43;7.28;;;10.70;99.90;;;;;;5085942;28;20033;-75
2021/10/09 07:50:15;;;;;;;21.38;7.30;;;10.90;99.90;;;;;;5084764;28;20396;-73
2021/10/09 07:52:41;;;;;;;17.73;7.43;;;11.00;99.90;;;;;;5085352;28;20027;-74
2021/10/09 07:55:08;;;;;;;14.45;7.50;;;11.20;99.90;;;;;;5085826;28;20024;-75
2021/10/09 07:57:34;;;;;;;19.52;6.85;;;11.40;99.90;;;;;;5085524;28;20104;-73
2021/10/09 08:00:00;;;;;;;16.65;7.05;;;11.40;99.90;;;;;;5081036;28;20059;-73
2021/10/09 08:02:26;;;;;;;16.20;7.90;;;11.50;99.90;;;;;;5085028;28;20079;-74
2021/10/09 08:04:52;;;;;;;15.10;6.63;;;11.60;99.90;;;;;;5080683;28;20048;-74
2021/10/09 08:07:18;;;;;;;17.02;7.55;;;11.60;99.90;;;;;;5095878;28;20029;-75
2021/10/09 08:09:44;;;;;;;15.15;7.30;;;11.60;99.90;;;;;;5085416;28;20066;-73
2021/10/09 08:12:09;;;;;;;18.83;7.43;;;11.50;99.90;;;;;;5084980;28;20037;-74
2021/10/09 08:14:35;;;;;;;27.60;7.18;;;11.60;99.90;;;;;;5079695;28;20032;-74
2021/10/09 08:17:01;;;;;;;17.63;7.38;;;11.60;99.90;;;;;;5079848;28;20566;-74
2021/10/09 08:19:27;;;;;;;23.95;7.88;;;11.70;99.90;;;;;;5074084;28;20028;-75
2021/10/09 08:21:59;;;;;;;22.30;7.53;;;11.60;99.90;;;;;;5085294;28;20464;-75
2021/10/09 08:24:45;;;;;;;19.02;6.82;;;11.70;99.90;;;;;;5085090;28;20037;-76
2021/10/09 08:40:57;;;;;;;21.25;7.50;;;11.90;99.90;;;;;;5070267;28;20546;-74
2021/10/09 08:43:23;;;;;;;16.83;7.07;;;12.00;99.90;;;;;;5075707;28;20048;-74
2021/10/09 08:45:49;;;;;;;17.90;6.18;;;12.10;99.90;;;;;;5083745;28;20047;-74
2021/10/09 08:48:23;;;;;;;13.65;7.15;;;12.20;99.90;;;;;;5083367;28;20024;-73
2021/10/09 08:50:49;;;;;;;20.67;6.28;;;12.30;99.90;;;;;;5084471;28;20080;-73
2021/10/09 08:53:14;;;;;;;12.93;6.68;;;12.30;99.90;;;;;;5084180;28;20043;-73
2021/10/09 08:55:46;;;;;;;21.77;6.82;;;12.40;99.90;;;;;;5083610;28;20120;-74
2021/10/09 08:58:29;;;;;;;10.98;5.85;;;12.40;99.90;;;;;;5076697;28;20791;-74
2021/10/09 09:01:12;;;;;;;15.57;5.90;;;12.50;99.90;;;;;;5063261;28;20067;-74
2021/10/09 09:04:02;;;;;;;14.32;5.97;;;12.50;99.90;;;;;;5073919;28;20055;-73
2021/10/09 09:26:29;;;;;;;17.70;6.85;;;13.00;99.90;;;;;;5074907;28;20067;-75
2021/10/09 09:37:41;;;;;;;14.20;5.85;;;13.40;99.90;;;;;;5080987;28;20082;-75
2021/10/09 09:40:18;;;;;;;19.92;5.93;;;13.60;99.90;;;;;;5081100;28;20037;-74
2021/10/09 09:42:50;;;;;;;12.88;5.55;;;13.70;99.90;;;;;;5083273;28;20087;-76
2021/10/09 09:45:22;;;;;;;18.17;7.53;;;13.80;99.90;;;;;;5083754;28;20059;-75
2021/10/09 09:48:04;;;;;;;13.52;6.43;;;13.80;99.90;;;;;;5080233;28;20029;-75
2021/10/09 09:50:33;;;;;;;17.58;6.13;;;13.90;99.90;;;;;;5080288;28;20027;-75
2021/10/09 09:53:03;;;;;;;11.95;6.00;;;14.00;99.90;;;;;;5081266;28;20027;-74
2021/10/09 09:55:30;;;;;;;21.15;6.03;;;14.10;99.90;;;;;;5081975;28;20055;-75
2021/10/09 09:58:01;;;;;;;11.95;5.57;;;14.10;99.90;;;;;;5080664;28;20036;-74
2021/10/09 10:00:33;;;;;;;17.48;5.18;;;14.20;99.90;;;;;;5081786;28;20028;-74
2021/10/09 10:03:01;;;;;;;11.52;5.68;;;14.20;99.90;;;;;;5082292;28;20450;-74
2021/10/09 10:05:29;;;;;;;16.95;5.22;;;14.20;99.90;;;;;;5079248;28;20048;-75
2021/10/09 10:07:56;;;;;;;11.90;5.55;;;14.30;99.90;;;;;;5080951;28;20033;-74
2021/10/09 10:10:22;;;;;;;12.52;6.53;;;14.30;99.90;;;;;;5082843;28;20017;-76
2021/10/09 10:12:56;;;;;;;14.48;5.50;;;14.40;99.90;;;;;;5083063;28;20086;-74
2021/10/09 10:15:28;;;;;;;11.52;5.13;;;14.50;99.90;;;;;;5082812;28;20029;-77
2021/10/09 10:17:57;;;;;;;16.25;4.80;;;14.60;99.90;;;;;;5080637;28;20099;-76
2021/10/09 10:20:46;;;;;;;15.02;6.60;;;14.70;99.90;;;;;;5080605;28;20107;-75
2021/10/09 10:23:32;;;;;;;10.48;5.03;;;14.70;99.90;;;;;;5081589;28;20737;-75
2021/10/09 10:26:21;;;;;;;18.00;5.75;;;14.80;99.90;;;;;;5082865;28;20037;-73
2021/10/09 10:28:57;;;;;;;23.60;6.18;;;14.80;99.90;;;;;;5082468;28;20101;-75
2021/10/09 10:31:27;;;;;;;13.38;6.20;;;14.80;99.90;;;;;;5081061;28;20044;-73
2021/10/09 10:34:23;;;;;;;17.35;5.60;;;14.80;99.90;;;;;;5081563;28;20050;-75
2021/10/09 10:36:51;;;;;;;17.58;5.93;;;14.80;99.90;;;;;;5081575;28;20567;-75
2021/10/09 10:39:24;;;;;;;14.65;5.90;;;15.00;99.90;;;;;;5083220;28;20094;-74
2021/10/09 10:42:05;;;;;;;13.30;5.72;;;15.10;99.90;;;;;;5077679;28;20107;-73
2021/10/09 10:44:51;;;;;;;13.23;6.05;;;15.00;99.90;;;;;;5072213;28;20063;-75
2021/10/09 10:48:28;;;;;;;12.50;6.00;;;15.00;99.90;;;;;;5080957;28;20388;-75
2021/10/09 10:51:01;;;;;;;;;;;15.10;99.90;;;;;;5081672;28;20036;-74
2021/10/09 10:54:13;;;;;;;17.00;6.07;;;15.20;99.90;;;;;;5082438;28;20406;-74
2021/10/09 10:56:35;;;;;;;10.98;5.80;;;15.40;99.90;;;;;;5083498;28;20032;-73
2021/10/09 10:59:29;;;;;;;13.35;5.97;;;15.60;99.90;;;;;;5082869;28;20032;-74
2021/10/09 11:02:12;;;;;;;14.70;5.68;;;15.60;99.90;;;;;;5082570;28;20460;-75
2021/10/09 11:04:41;;;;;;;10.35;5.07;;;15.80;99.90;;;;;;5082968;28;20069;-73
2021/10/09 11:07:07;;;;;;;13.65;6.28;;;15.90;99.90;;;;;;5083100;28;20078;-74
2021/10/09 11:09:49;;;;;;;13.40;6.50;;;16.00;99.90;;;;;;5074357;28;20025;-75
2021/10/09 11:12:26;;;;;;;17.25;5.15;;;16.20;99.90;;;;;;5080142;28;20029;-73
2021/10/09 11:15:03;;;;;;;11.95;6.03;;;16.40;99.90;;;;;;5079953;28;20031;-73
2021/10/09 11:17:38;;;;;;;10.13;4.78;;;16.60;99.90;;;;;;5081677;28;20438;-75
2021/10/09 11:20:08;;;;;;;21.70;6.88;;;16.80;99.90;;;;;;5079688;28;20038;-72
2021/10/09 11:22:49;;;;;;;19.40;6.65;;;16.80;99.90;;;;;;5099246;28;20036;-74
2021/10/09 11:25:26;;;;;;;12.52;5.35;;;16.90;99.90;;;;;;5102350;28;20177;-72
2021/10/09 11:27:57;;;;;;;9.40;4.90;;;17.10;99.90;;;;;;5084727;28;20166;-74
2021/10/09 11:30:26;;;;;;;11.13;4.72;;;16.90;99.90;;;;;;5074932;28;20040;-74
2021/10/09 11:32:56;;;;;;;14.93;5.72;;;16.70;99.90;;;;;;5074845;28;20024;-73
2021/10/09 11:35:37;;;;;;;17.33;6.47;;;16.80;99.90;;;;;;5076176;28;20035;-75
2021/10/09 11:38:06;;;;;;;20.70;5.35;;;16.90;99.90;;;;;;5100192;28;20102;-72
2021/10/09 11:41:24;;;;;;;13.63;6.00;;;17.20;99.90;;;;;;5073304;28;20116;-73
2021/10/09 11:56:47;;;;;;;14.85;4.65;;;19.30;99.90;;;;;;5086539;28;20400;-74
2021/10/09 11:59:13;;;;;;;10.50;4.65;;;19.50;99.90;;;;;;5086340;28;20036;-72
2021/10/09 12:01:45;;;;;;;13.75;5.47;;;19.60;99.90;;;;;;5086314;28;20740;-74
2021/10/09 12:04:25;;;;;;;9.07;4.40;;;19.80;99.90;;;;;;5084343;28;20443;-74
2021/10/09 12:06:58;;;;;;;17.30;6.43;;;20.10;99.90;;;;;;5085487;28;20029;-75
2021/10/09 12:09:38;;;;;;;13.23;5.05;;;20.20;99.90;;;;;;5086271;28;20021;-74
2021/10/09 12:12:23;;;;;;;8.85;4.65;;;20.30;99.90;;;;;;5086485;28;20024;-73
2021/10/09 12:14:49;;;;;;;;;;;20.30;99.90;;;;;;5087453;28;20032;-73
2021/10/09 12:17:17;;;;;;;10.60;4.50;;;20.40;99.90;;;;;;5086213;28;19944;-73
2021/10/09 12:19:46;;;;;;;10.88;4.93;;;20.30;99.90;;;;;;5084674;28;20380;-72
2021/10/09 12:22:14;;;;;;;12.00;4.55;;;20.20;99.90;;;;;;5085162;28;20492;-74
2021/10/09 12:24:51;;;;;;;11.18;5.20;;;20.30;99.90;;;;;;5101072;28;20044;-74
2021/10/09 12:27:28;;;;;;;15.52;5.07;;;20.50;99.90;;;;;;5064777;28;20017;-73
2021/10/09 12:30:08;;;;;;;6.57;3.72;;;20.50;99.90;;;;;;5068802;28;20032;-74
2021/10/09 12:32:52;;;;;;;13.15;5.22;;;20.60;99.90;;;;;;5085371;28;20032;-72
2021/10/09 12:35:22;;;;;;;;;;;20.30;99.90;;;;;;5084296;28;20071;-72
2021/10/09 12:37:58;;;;;;;7.93;3.70;;;20.10;99.90;;;;;;5075021;28;19908;-72
2021/10/09 12:40:27;;;;;;;11.43;4.18;;;19.80;99.90;;;;;;5085574;28;20040;-72
2021/10/09 12:42:58;;;;;;;9.35;3.72;;;19.60;99.90;;;;;;5085523;28;20027;-72
2021/10/09 12:45:25;;;;;;;13.15;4.55;;;19.70;99.90;;;;;;5084850;28;20503;-73
2021/10/09 12:47:54;;;;;;;14.80;5.10;;;19.70;99.90;;;;;;5085207;28;20035;-73
2021/10/09 12:50:20;;;;;;;12.07;4.80;;;19.70;99.90;;;;;;5080182;28;20028;-72
2021/10/09 12:52:53;;;;;;;12.63;4.75;;;19.80;99.90;;;;;;5083385;28;20422;-73
2021/10/09 12:55:27;;;;;;;11.70;4.50;;;20.00;99.90;;;;;;5079771;28;20545;-73
2021/10/09 12:57:58;;;;;;;9.27;3.92;;;20.30;99.90;;;;;;5079344;28;20285;-74
2021/10/09 13:00:27;;;;;;;10.48;4.05;;;20.50;99.90;;;;;;5081031;28;20460;-72
2021/10/09 13:02:57;;;;;;;12.63;4.47;;;20.80;99.90;;;;;;5080516;28;20048;-72
2021/10/09 13:05:25;;;;;;;11.55;4.18;;;21.00;99.90;;;;;;5084608;28;20047;-72
2021/10/09 13:07:53;;;;;;;10.07;4.45;;;21.00;99.90;;;;;;5078820;28;20035;-73
2021/10/09 13:10:21;;;;;;;17.77;3.50;;;21.00;99.90;;;;;;5077964;28;20024;-74
2021/10/09 13:12:49;;;;;;;10.15;3.88;;;21.00;99.90;;;;;;5078968;28;20074;-72
2021/10/09 13:15:17;;;;;;;6.97;3.53;;;21.00;99.90;;;;;;5081143;28;20043;-71
2021/10/09 13:17:46;;;;;;;21.73;4.43;;;21.00;99.90;;;;;;5081793;28;20707;-73
2021/10/09 13:20:13;;;;;;;5.22;2.92;;;21.00;99.90;;;;;;5075482;28;20029;-73
2021/10/09 13:22:39;;;;;;;11.57;3.90;;;20.90;99.90;;;;;;5084048;28;20032;-72
2021/10/09 13:25:05;;;;;;;7.28;3.42;;;20.90;99.90;;;;;;5083923;28;20043;-72
2021/10/09 13:27:31;;;;;;;8.88;4.32;;;20.80;99.90;;;;;;5083906;28;20056;-73
2021/10/09 13:30:00;;;;;;;9.32;3.90;;;20.80;99.90;;;;;;5075205;28;20054;-72
2021/10/09 13:32:27;;;;;;;12.23;3.53;;;20.80;99.90;;;;;;5077989;28;20052;-74
2021/10/09 13:34:53;;;;;;;6.15;3.42;;;20.80;99.90;;;;;;5077723;28;20036;-73
2021/10/09 13:37:25;;;;;;;12.70;3.85;;;20.90;99.90;;;;;;5073063;28;20032;-72
2021/10/09 13:39:56;;;;;;;9.07;2.90;;;21.00;99.90;;;;;;5073857;28;20025;-74
2021/10/09 13:42:28;;;;;;;8.10;3.58;;;21.30;99.90;;;;;;5081159;28;20049;-74
2021/10/09 13:44:54;;;;;;;7.10;2.80;;;21.60;99.90;;;;;;5082905;28;20142;-72
2021/10/09 13:47:21;;;;;;;11.05;3.58;;;21.80;99.90;;;;;;5077053;28;20048;-72
2021/10/09 13:49:53;;;;;;;7.05;3.33;;;22.10;99.90;;;;;;5082676;28;20028;-73
2021/10/09 13:52:19;;;;;;;9.85;2.97;;;22.50;99.90;;;;;;5078301;28;20131;-72
2021/10/09 13:54:45;;;;;;;8.00;3.20;;;23.10;99.90;;;;;;5074046;28;20575;-73
2021/10/09 13:57:10;;;;;;;7.50;2.90;;;23.60;99.90;;;;;;5078642;28;20028;-71
2021/10/09 13:59:37;;;;;;;10.40;3.53;;;24.30;99.90;;;;;;5081715;28;20037;-71
2021/10/09 14:02:04;;;;;;;9.20;3.15;;;24.80;99.90;;;;;;5076251;28;20416;-71
2021/10/09 14:04:36;;;;;;;8.55;3.10;;;25.20;99.90;;;;;;5074804;28;20131;-72
2021/10/09 14:07:02;;;;;;;9.13;3.10;;;25.70;99.90;;;;;;5074752;28;20086;-73
2021/10/09 14:09:28;;;;;;;5.10;2.78;;;26.20;99.90;;;;;;5071657;28;20021;-72
2021/10/09 14:11:54;;;;;;;6.55;2.80;;;26.30;99.90;;;;;;5072782;28;20025;-73
2021/10/09 14:14:22;;;;;;;6.82;2.85;;;26.40;99.90;;;;;;5068908;28;20481;-73
2021/10/09 14:16:51;;;;;;;6.90;2.60;;;26.70;99.90;;;;;;5080911;28;20021;-72
2021/10/09 14:19:22;;;;;;;7.72;2.83;;;26.80;96.30;;;;;;5083038;28;20032;-74
2021/10/09 14:21:51;;;;;;;9.38;2.38;;;27.00;99.00;;;;;;5075968;28;20055;-73
2021/10/09 14:24:20;;;;;;;3.92;2.30;;;27.10;99.70;;;;;;5082725;28;20074;-73
2021/10/09 14:32:04;;;;;;;3.67;2.10;;;27.60;97.20;;;;;;4357779;26;20072;-72
2021/10/09 14:34:29;;;;;;;5.15;2.33;;;27.60;95.50;;;;;;5035119;28;20556;-73
2021/10/09 14:36:55;;;;;;;5.32;2.20;;;27.60;94.10;;;;;;5033888;28;20072;-71
2021/10/09 14:39:21;;;;;;;8.02;2.28;;;27.60;94.50;;;;;;5038855;28;20508;-71
2021/10/09 14:41:56;;;;;;;18.17;2.30;;;27.60;94.70;;;;;;5030851;28;20022;-72
2021/10/09 14:44:22;;;;;;;4.93;2.00;;;27.70;92.70;;;;;;5032275;28;20030;-71
2021/10/09 14:52:22;;;;;;;3.45;1.67;;;27.90;91.40;;;;;;5046061;28;20030;-71
2021/10/09 15:19:13;;;;;;;11.13;2.35;;;27.40;91.00;;;;;;5047141;28;20033;-73
2021/10/09 15:21:40;;;;;;;5.93;2.25;;;27.40;91.20;;;;;;5047165;28;20029;-72
2021/10/09 15:24:07;;;;;;;4.80;2.38;;;27.30;89.40;;;;;;5046908;28;20030;-74
2021/10/09 15:26:32;;;;;;;3.65;2.00;;;27.10;90.40;;;;;;5046468;28;20081;-72
2021/10/09 15:28:58;;;;;;;5.72;2.30;;;27.00;91.00;;;;;;5044645;28;20037;-72
2021/10/09 15:31:24;;;;;;;5.20;2.28;;;26.80;90.30;;;;;;5032204;28;20049;-72
2021/10/09 15:33:50;;;;;;;5.03;1.83;;;26.70;90.00;;;;;;5026407;28;20018;-73
2021/10/09 15:36:15;;;;;;;3.67;1.98;;;26.20;88.50;;;;;;5026177;28;20066;-72
2021/10/09 15:38:41;;;;;;;6.88;2.03;;;25.50;86.80;;;;;;5026262;28;20453;-72
2021/10/09 15:41:08;;;;;;;4.60;2.17;;;24.60;85.70;;;;;;5026676;28;20117;-73
2021/10/09 15:43:34;;;;;;;3.30;1.80;;;23.70;89.30;;;;;;5026101;28;20453;-72
2021/10/09 15:45:59;;;;;;;9.15;1.60;;;22.80;90.60;;;;;;5024575;28;20041;-71
2021/10/09 15:48:25;;;;;;;3.30;1.80;;;22.00;90.70;;;;;;5026074;28;20034;-72
2021/10/09 15:50:51;;;;;;;8.40;2.60;;;21.40;91.20;;;;;;5026147;28;20032;-72
2021/10/09 15:53:17;;;;;;;5.03;2.22;;;20.90;91.70;;;;;;5026001;28;20454;-72
2021/10/09 15:55:44;;;;;;;5.78;2.17;;;20.40;92.40;;;;;;5024704;28;20245;-73
2021/10/09 15:58:10;;;;;;;11.82;2.58;;;20.00;94.30;;;;;;5026045;28;20121;-74
2021/10/09 16:00:36;;;;;;;5.55;2.33;;;19.50;95.20;;;;;;5026583;28;20046;-73
2021/10/09 16:03:02;;;;;;;3.35;1.88;;;19.10;96.20;;;;;;5026439;28;20041;-72
2021/10/09 16:05:28;;;;;;;4.45;2.05;;;18.70;96.60;;;;;;5025978;28;20057;-72
2021/10/09 16:07:53;;;;;;;4.70;2.05;;;18.40;97.10;;;;;;5024200;28;20034;-72
2021/10/09 16:10:19;;;;;;;4.65;2.50;;;18.10;97.90;;;;;;5025352;28;20116;-72
2021/10/09 16:12:45;;;;;;;7.78;2.40;;;17.80;98.60;;;;;;5026168;28;20046;-74
2021/10/09 16:15:12;;;;;;;10.02;2.78;;;17.60;99.10;;;;;;5010874;28;20053;-73
2021/10/09 16:17:38;;;;;;;11.68;2.58;;;17.40;99.90;;;;;;5015781;28;20018;-73
2021/10/09 16:20:06;;;;;;;4.70;2.42;;;17.20;99.90;;;;;;5024715;28;20033;-72
2021/10/09 16:22:32;;;;;;;5.55;2.13;;;17.00;99.90;;;;;;5025885;28;20052;-72
2021/10/09 16:24:58;;;;;;;4.45;2.13;;;16.80;99.90;;;;;;5025844;28;20029;-72
2021/10/09 16:27:24;;;;;;;7.65;2.42;;;16.60;99.90;;;;;;5024606;28;20030;-72
2021/10/09 16:29:50;;;;;;;5.35;3.08;;;16.40;99.90;;;;;;5025896;28;20030;-72
2021/10/09 16:32:18;;;;;;;6.88;3.13;;;16.30;99.90;;;;;;5025186;28;20049;-72
2021/10/09 16:34:46;;;;;;;5.63;3.00;;;16.10;99.90;;;;;;5023947;28;20049;-73
2021/10/09 16:37:13;;;;;;;5.45;2.80;;;16.00;99.90;;;;;;5025947;28;20029;-73
2021/10/09 16:39:40;;;;;;;7.47;2.78;;;15.80;99.90;;;;;;5025325;28;20022;-73
2021/10/09 16:42:07;;;;;;;4.25;2.47;;;15.60;99.90;;;;;;5026066;28;20030;-73
2021/10/09 16:44:33;;;;;;;5.53;2.88;;;15.60;99.90;;;;;;5025669;28;20057;-73
2021/10/09 16:46:58;;;;;;;5.18;2.17;;;15.40;99.90;;;;;;5025125;28;20041;-73
2021/10/09 16:49:25;;;;;;;12.57;3.00;;;15.30;99.90;;;;;;5025044;28;20026;-75
2021/10/09 16:51:51;;;;;;;11.43;3.22;;;15.20;99.90;;;;;;5024780;28;20168;-72
2021/10/09 16:54:17;;;;;;;7.03;2.63;;;15.10;99.90;;;;;;5025040;28;20121;-73
2021/10/09 16:56:44;;;;;;;9.35;3.13;;;14.90;99.90;;;;;;5024898;28;20045;-73
2021/10/09 16:59:10;;;;;;;4.53;2.53;;;14.80;99.90;;;;;;5023192;28;20068;-72
2021/10/09 17:01:37;;;;;;;10.07;2.83;;;14.70;99.90;;;;;;5024783;28;20018;-72
2021/10/09 17:04:03;;;;;;;6.05;2.50;;;14.50;99.90;;;;;;5025147;28;20034;-73
2021/10/09 17:06:29;;;;;;;6.15;3.03;;;14.40;99.90;;;;;;5023455;28;20030;-73
2021/10/09 17:08:56;;;;;;;11.82;3.05;;;14.30;99.90;;;;;;5022278;28;20087;-74
2021/10/09 17:11:26;;;;;;;14.02;3.10;;;14.30;99.90;;;;;;5024352;28;20054;-73
2021/10/09 17:13:54;;;;;;;7.00;2.97;;;14.20;99.90;;;;;;5024526;28;20029;-75
2021/10/09 17:16:23;;;;;;;5.18;2.80;;;14.10;99.90;;;;;;5024839;28;20034;-72
2021/10/09 17:18:49;;;;;;;13.82;3.00;;;14.00;99.90;;;;;;5024607;28;20080;-74
2021/10/09 17:21:15;;;;;;;21.60;4.18;;;14.00;99.90;;;;;;5024299;28;20470;-73
2021/10/09 17:23:41;;;;;;;10.05;2.88;;;13.90;99.90;;;;;;5024774;28;20033;-74
2021/10/09 17:26:09;;;;;;;10.48;3.13;;;13.80;99.90;;;;;;5024814;28;20037;-75
2021/10/09 17:28:34;;;;;;;15.63;4.03;;;13.80;99.90;;;;;;5024305;28;20045;-73
2021/10/09 17:31:00;;;;;;;7.45;3.55;;;13.80;99.90;;;;;;5024240;28;20054;-73
2021/10/09 17:33:26;;;;;;;6.50;3.22;;;13.60;99.90;;;;;;5024677;28;20048;-73
2021/10/09 17:35:52;;;;;;;6.47;3.10;;;13.60;99.90;;;;;;5023962;28;20049;-73
2021/10/09 17:38:18;;;;;;;7.53;3.85;;;13.50;99.90;;;;;;5024522;28;20022;-73
2021/10/09 17:40:45;;;;;;;8.55;3.00;;;13.50;99.90;;;;;;5024195;28;20081;-73
2021/10/09 17:43:13;;;;;;;8.45;4.07;;;13.50;99.90;;;;;;5023459;28;20068;-75
2021/10/09 17:45:39;;;;;;;6.55;3.65;;;13.40;99.90;;;;;;5022634;28;20395;-74
2021/10/09 17:48:07;;;;;;;9.60;3.38;;;13.30;99.90;;;;;;5022058;28;20061;-74
2021/10/09 17:50:35;;;;;;;7.55;3.60;;;13.20;99.90;;;;;;5022288;28;20027;-75
2021/10/09 17:53:02;;;;;;;8.32;3.90;;;13.10;99.90;;;;;;5022905;28;20065;-74
2021/10/09 17:55:28;;;;;;;8.65;3.67;;;13.10;99.90;;;;;;5023274;28;20482;-74
2021/10/09 17:57:54;;;;;;;7.22;3.35;;;13.10;99.90;;;;;;5021698;28;20033;-74
2021/10/09 18:00:24;;;;;;;8.23;3.47;;;13.00;99.90;;;;;;5024183;28;20474;-74
2021/10/09 18:02:50;;;;;;;24.13;3.85;;;12.90;99.90;;;;;;5022581;28;20030;-73
2021/10/09 18:05:15;;;;;;;7.95;3.58;;;12.90;99.90;;;;;;5022823;28;20045;-73
2021/10/09 18:07:42;;;;;;;10.52;3.80;;;12.90;99.90;;;;;;5023973;28;20034;-74
2021/10/09 18:10:12;;;;;;;8.82;3.13;;;12.90;99.90;;;;;;5023247;28;20032;-74
2021/10/09 18:12:45;;;;;;;6.43;3.38;;;12.90;99.90;;;;;;5023243;28;20053;-74
2021/10/09 18:15:12;;;;;;;8.15;3.50;;;12.80;99.90;;;;;;5022553;28;20076;-74
2021/10/09 18:17:46;;;;;;;8.05;3.13;;;12.70;99.90;;;;;;5023454;28;20026;-74
2021/10/09 18:20:11;;;;;;;9.73;4.00;;;12.70;99.90;;;;;;5022904;28;20034;-74
2021/10/09 18:22:37;;;;;;;8.13;3.65;;;12.70;99.90;;;;;;5022624;28;20349;-74
2021/10/09 18:25:03;;;;;;;12.70;3.55;;;12.70;99.90;;;;;;5021789;28;20539;-74
2021/10/09 18:27:29;;;;;;;8.55;3.78;;;12.60;99.90;;;;;;5023555;28;20058;-73
2021/10/09 18:29:55;;;;;;;9.45;3.53;;;12.60;99.90;;;;;;5023375;28;20041;-73
2021/10/09 18:32:21;;;;;;;11.93;5.82;;;12.60;99.90;;;;;;5022022;28;20080;-74
2021/10/09 18:34:46;;;;;;;12.20;4.20;;;12.60;99.90;;;;;;5022116;28;20044;-72
2021/10/09 18:37:12;;;;;;;15.57;2.97;;;12.60;99.90;;;;;;5023524;28;20038;-74
2021/10/09 18:39:39;;;;;;;7.18;3.60;;;12.60;99.90;;;;;;5021426;28;20029;-74
2021/10/09 18:42:04;;;;;;;7.13;3.28;;;12.50;99.90;;;;;;5022904;28;20062;-73
2021/10/09 18:44:30;;;;;;;6.43;3.10;;;12.40;99.90;;;;;;5038301;28;20029;-73
2021/10/09 18:46:56;;;;;;;10.68;3.83;;;12.40;99.90;;;;;;5039020;28;20033;-73
2021/10/09 18:49:22;;;;;;;13.32;3.53;;;12.30;99.90;;;;;;5023145;28;20069;-73
2021/10/09 18:51:49;;;;;;;13.05;3.97;;;12.20;99.90;;;;;;5021792;28;20026;-73
2021/10/09 18:54:16;;;;;;;8.20;3.38;;;12.10;99.90;;;;;;5021674;28;20054;-73
2021/10/09 18:56:42;;;;;;;7.32;3.03;;;12.10;99.90;;;;;;5023005;28;20048;-72
2021/10/09 18:59:08;;;;;;;10.32;3.65;;;12.00;99.90;;;;;;5023112;28;20026;-73
2021/10/09 19:01:34;;;;;;;8.02;3.83;;;12.00;99.90;;;;;;5023015;28;20022;-71
2021/10/09 19:03:59;;;;;;;10.38;4.00;;;12.00;99.90;;;;;;5023306;28;20033;-72
2021/10/09 19:06:26;;;;;;;24.13;4.25;;;11.90;99.90;;;;;;5022431;28;20033;-72
2021/10/09 19:08:52;;;;;;;7.22;3.45;;;11.80;99.90;;;;;;5022231;28;20030;-73
2021/10/09 19:11:18;;;;;;;11.10;3.92;;;11.80;99.90;;;;;;5022934;28;20028;-73
2021/10/09 19:13:43;;;;;;;8.20;3.80;;;11.80;99.90;;;;;;5021814;28;20034;-73
2021/10/09 19:16:15;;;;;;;7.75;3.58;;;11.70;99.90;;;;;;5021981;28;20041;-73
2021/10/09 19:18:40;;;;;;;19.85;4.03;;;11.70;99.90;;;;;;5022611;28;20407;-74
2021/10/09 19:21:07;;;;;;;8.65;3.85;;;11.70;99.90;;;;;;5021481;28;20085;-75
2021/10/09 19:23:33;;;;;;;11.10;4.55;;;11.70;99.90;;;;;;5022562;28;20028;-73
2021/10/09 19:25:59;;;;;;;7.90;3.60;;;11.70;99.90;;;;;;5021596;28;20086;-73
2021/10/09 19:28:24;;;;;;;8.77;3.88;;;11.70;99.90;;;;;;5021507;28;20034;-73
2021/10/09 19:30:50;;;;;;;8.15;3.05;;;11.60;99.90;;;;;;5026343;28;20076;-72
2021/10/09 19:33:16;;;;;;;16.70;4.07;;;11.60;99.90;;;;;;5026438;28;20482;-73
2021/10/09 19:35:46;;;;;;;10.40;4.03;;;11.50;99.90;;;;;;5026254;28;20038;-73
2021/10/09 19:38:15;;;;;;;11.57;3.85;;;11.40;99.90;;;;;;5026567;28;20052;-73
2021/10/09 19:40:44;;;;;;;8.63;4.15;;;11.40;99.90;;;;;;5026178;28;20076;-73
2021/10/09 19:43:14;;;;;;;8.00;3.88;;;11.40;99.90;;;;;;5024548;28;20032;-75
2021/10/09 19:45:39;;;;;;;10.05;3.75;;;11.40;99.90;;;;;;5018675;28;20089;-73
2021/10/09 19:48:06;;;;;;;10.48;4.20;;;11.30;99.90;;;;;;5024919;28;20030;-73
2021/10/09 19:50:35;;;;;;;9.30;4.13;;;11.30;99.90;;;;;;5027204;28;20018;-73
2021/10/09 19:53:16;;;;;;;15.93;5.57;;;11.30;99.90;;;;;;5026023;28;20061;-73
2021/10/09 19:55:43;;;;;;;12.75;4.22;;;11.20;99.90;;;;;;5026557;28;20038;-73
2021/10/09 19:58:09;;;;;;;10.10;3.85;;;11.20;99.90;;;;;;5025649;28;20029;-74
2021/10/09 20:00:34;;;;;;;11.10;4.45;;;11.10;99.90;;;;;;5026303;28;20367;-73
2021/10/09 20:03:00;;;;;;;13.02;4.20;;;11.10;99.90;;;;;;5026622;28;20037;-72
2021/10/09 20:05:26;;;;;;;7.45;4.18;;;11.00;99.90;;;;;;5026573;28;20108;-73
2021/10/09 20:07:52;;;;;;;13.98;3.92;;;11.00;99.90;;;;;;5026326;28;20085;-72
2021/10/09 20:10:34;;;;;;;8.80;3.53;;;11.00;99.90;;;;;;5024943;28;20057;-73
2021/10/09 20:13:01;;;;;;;8.07;3.95;;;11.00;99.90;;;;;;5027240;28;20025;-72